createdAt,value
2022-08-11T00:01:19.987Z,39.96
2022-08-11T00:03:58.721Z,39.34
2022-08-11T00:06:28.990Z,39.83
2022-08-11T00:08:57.040Z,39.67
2022-08-11T00:11:33.923Z,39.51
2022-08-11T00:14:02.075Z,39.78
2022-08-11T00:16:29.684Z,39.96
2022-08-11T00:18:57.639Z,40.25
2022-08-11T00:22:01.989Z,40.42
2022-08-11T00:24:13.124Z,40.59
2022-08-11T00:26:39.661Z,40.40
2022-08-11T00:29:10.811Z,40.43
2022-08-11T00:31:38.955Z,40.89
2022-08-11T00:34:11.449Z,40.87
2022-08-11T00:36:59.909Z,40.74
2022-08-11T00:39:29.245Z,40.65
2022-08-11T00:42:23.827Z,40.30
2022-08-11T00:45:35.076Z,40.50
2022-08-11T00:48:40.152Z,40.76
2022-08-11T00:51:20.486Z,41.20
2022-08-11T00:54:02.529Z,40.81
2022-08-11T00:56:47.748Z,41.55
2022-08-11T00:59:35.064Z,41.00
2022-08-11T01:02:18.275Z,41.29
2022-08-11T01:04:57.268Z,41.07
2022-08-11T01:08:02.875Z,41.36
2022-08-11T01:11:16.995Z,41.47
2022-08-11T01:14:05.427Z,41.38
2022-08-11T01:17:25.070Z,41.52
2022-08-11T01:20:45.825Z,41.90
2022-08-11T01:23:07.521Z,41.80
2022-08-11T01:25:56.421Z,42.32
2022-08-11T01:29:13.503Z,42.19
2022-08-11T01:32:21.559Z,41.44
2022-08-11T01:35:29.322Z,41.81
2022-08-11T01:38:27.790Z,42.44
2022-08-11T01:41:24.429Z,42.97
2022-08-11T01:44:39.119Z,42.54
2022-08-11T01:47:53.076Z,42.58
2022-08-11T01:50:57.387Z,42.66
2022-08-11T01:53:35.573Z,42.95
2022-08-11T01:56:24.720Z,42.94
2022-08-11T01:59:10.598Z,43.05
2022-08-11T02:01:58.868Z,43.16
2022-08-11T02:04:34.528Z,43.94
2022-08-11T02:07:04.489Z,43.83
2022-08-11T02:09:54.416Z,43.64
2022-08-11T02:13:00.428Z,43.66
2022-08-11T02:15:36.340Z,44.16
2022-08-11T02:18:13.758Z,43.99
2022-08-11T02:21:21.118Z,43.71
2022-08-11T02:24:09.191Z,43.91
2022-08-11T02:26:47.047Z,44.62
2022-08-11T02:29:33.756Z,44.92
2022-08-11T02:32:38.235Z,44.53
2022-08-11T02:35:52.970Z,44.63
2022-08-11T02:38:31.776Z,45.05
2022-08-11T02:41:40.285Z,45.08
2022-08-11T02:44:20.785Z,45.50
2022-08-11T02:47:02.843Z,45.47
2022-08-11T02:50:05.907Z,45.47
2022-08-11T02:53:02.190Z,45.75
2022-08-11T02:55:58.278Z,45.52
2022-08-11T02:59:06.217Z,46.02
2022-08-11T03:01:45.543Z,46.14
2022-08-11T03:04:37.662Z,46.55
2022-08-11T03:07:29.048Z,46.19
2022-08-11T03:10:02.778Z,46.99
2022-08-11T03:12:55.101Z,47.35
2022-08-11T03:15:50.040Z,47.22
2022-08-11T03:18:41.231Z,46.90
2022-08-11T03:21:17.592Z,47.57
2022-08-11T03:24:13.619Z,47.34
2022-08-11T03:26:54.816Z,47.59
2022-08-11T03:29:34.203Z,47.63
2022-08-11T03:32:19.336Z,48.04
2022-08-11T03:34:48.653Z,48.30
2022-08-11T03:37:39.789Z,47.88
2022-08-11T03:40:51.932Z,47.44
2022-08-11T03:43:32.602Z,47.84
2022-08-11T03:46:12.168Z,48.44
2022-08-11T03:48:57.174Z,48.42
2022-08-11T03:51:44.798Z,48.89
2022-08-11T03:54:35.721Z,48.56
2022-08-11T03:57:14.172Z,48.84
2022-08-11T04:00:18.225Z,48.57
2022-08-11T04:03:07.888Z,49.40
2022-08-11T04:06:15.525Z,49.17
2022-08-11T04:09:23.730Z,48.71
2022-08-11T04:12:36.797Z,48.95
2022-08-11T04:15:59.684Z,49.16
2022-08-11T04:18:55.037Z,49.51
2022-08-11T04:21:59.297Z,49.67
2022-08-11T04:24:50.538Z,49.88
2022-08-11T04:27:47.920Z,50.41
2022-08-11T04:30:40.533Z,50.41
2022-08-11T04:33:19.614Z,51.25
2022-08-11T04:36:05.979Z,50.84
2022-08-11T04:38:58.770Z,50.20
2022-08-11T04:42:18.865Z,50.07
2022-08-11T04:45:11.868Z,51.12
2022-08-11T04:48:10.546Z,51.97
2022-08-11T04:51:37.970Z,50.69
2022-08-11T04:54:39.629Z,51.48
2022-08-11T04:57:54.192Z,51.10
2022-08-11T05:00:48.081Z,51.77
2022-08-11T05:03:43.038Z,51.39
2022-08-11T05:06:37.922Z,51.28
2022-08-11T05:09:28.750Z,51.48
2022-08-11T05:12:02.282Z,51.97
2022-08-11T05:15:08.034Z,51.72
2022-08-11T05:18:16.126Z,52.73
2022-08-11T05:21:07.420Z,52.36
2022-08-11T05:23:58.176Z,52.41
2022-08-11T05:26:49.294Z,52.71
2022-08-11T05:30:02.448Z,52.07
2022-08-11T05:33:01.554Z,52.36
2022-08-11T05:36:02.362Z,52.33
2022-08-11T05:38:46.037Z,52.96
2022-08-11T05:41:31.863Z,52.41
2022-08-11T05:44:22.100Z,52.45
2022-08-11T05:47:08.431Z,52.86
2022-08-11T05:49:54.402Z,52.71
2022-08-11T05:52:43.578Z,52.85
2022-08-11T05:55:33.133Z,52.81
2022-08-11T05:58:04.222Z,53.42
2022-08-11T06:00:32.140Z,53.33
2022-08-11T06:03:04.060Z,53.43
2022-08-11T06:05:43.938Z,52.93
2022-08-11T06:08:12.559Z,53.03
2022-08-11T06:10:44.196Z,53.55
2022-08-11T06:13:16.534Z,53.05
2022-08-11T06:15:48.056Z,53.05
2022-08-11T06:18:15.329Z,51.47
2022-08-11T06:20:56.562Z,52.58
2022-08-11T06:23:25.878Z,53.10
2022-08-11T06:25:56.140Z,52.95
2022-08-11T06:28:33.360Z,52.92
2022-08-11T06:31:00.548Z,53.46
2022-08-11T06:33:50.752Z,52.67
2022-08-11T06:36:29.748Z,53.45
2022-08-11T06:39:11.356Z,53.21
2022-08-11T06:41:48.839Z,53.52
2022-08-11T06:44:28.553Z,53.22
2022-08-11T06:47:00.959Z,53.96
2022-08-11T06:49:55.528Z,53.82
2022-08-11T06:52:36.375Z,53.42
2022-08-11T06:55:55.403Z,53.44
2022-08-11T06:58:23.039Z,53.44
2022-08-11T07:00:56.879Z,53.01
2022-08-11T07:03:26.091Z,52.52
2022-08-11T07:06:01.465Z,52.95
2022-08-11T07:08:58.768Z,52.81
2022-08-11T07:12:02.414Z,52.58
2022-08-11T07:14:49.950Z,52.37
2022-08-11T07:17:26.032Z,52.21
2022-08-11T07:20:17.575Z,51.75
2022-08-11T07:23:12.524Z,51.23
2022-08-11T07:26:00.499Z,51.63
2022-08-11T07:28:48.496Z,51.78
2022-08-11T07:31:21.895Z,50.52
2022-08-11T07:34:07.785Z,51.16
2022-08-11T07:36:45.980Z,50.28
2022-08-11T07:39:32.635Z,50.22
2022-08-11T07:42:04.855Z,50.41
2022-08-11T07:44:52.622Z,50.11
2022-08-11T07:47:37.725Z,50.58
2022-08-11T07:50:24.141Z,50.85
2022-08-11T07:52:52.787Z,50.53
2022-08-11T07:55:48.937Z,49.24
2022-08-11T07:58:31.694Z,48.87
2022-08-11T08:01:37.043Z,49.27
2022-08-11T08:04:24.159Z,49.21
2022-08-11T08:07:09.792Z,48.98
2022-08-11T08:09:55.324Z,48.37
2022-08-11T08:12:43.060Z,48.88
2022-08-11T08:15:33.482Z,46.92
2022-08-11T08:18:20.709Z,45.02
2022-08-11T08:20:50.464Z,47.04
2022-08-11T08:23:32.759Z,48.90
2022-08-11T08:26:02.214Z,47.16
2022-08-11T08:28:32.414Z,45.25
2022-08-11T08:31:00.720Z,44.67
2022-08-11T08:33:32.250Z,45.27
2022-08-11T08:36:12.397Z,46.00
2022-08-11T08:38:49.824Z,44.04
2022-08-11T08:41:27.481Z,44.36
2022-08-11T08:44:15.127Z,43.92
2022-08-11T08:46:49.317Z,43.44
2022-08-11T08:49:19.480Z,44.14
2022-08-11T08:52:02.000Z,43.88
2022-08-11T08:54:42.045Z,44.45
2022-08-11T08:57:09.674Z,44.13
2022-08-11T08:59:48.481Z,43.89
2022-08-11T09:02:22.065Z,43.49
2022-08-11T09:05:03.567Z,42.56
2022-08-11T09:07:38.811Z,43.21
2022-08-11T09:10:07.622Z,43.12
2022-08-11T09:12:36.388Z,41.71
2022-08-11T09:15:06.289Z,43.02
2022-08-11T09:17:46.605Z,41.73
2022-08-11T09:20:21.225Z,42.62
2022-08-11T09:26:19.385Z,41.57
2022-08-11T09:28:47.523Z,41.04
2022-08-11T09:31:15.237Z,39.98
2022-08-11T09:33:44.416Z,40.89
2022-08-11T09:36:32.224Z,40.60
2022-08-11T09:39:19.265Z,40.06
2022-08-11T09:42:01.363Z,40.89
2022-08-11T09:44:48.608Z,40.37
2022-08-11T09:47:40.377Z,41.44
2022-08-11T09:50:09.576Z,40.49
2022-08-11T09:52:48.083Z,40.56
2022-08-11T09:55:24.448Z,39.74
2022-08-11T09:58:09.784Z,39.34
2022-08-11T10:00:38.005Z,39.19
2022-08-11T10:03:08.386Z,37.90
2022-08-11T10:05:55.748Z,37.48
2022-08-11T10:08:26.688Z,38.80
2022-08-11T10:10:55.345Z,37.98
2022-08-11T10:14:12.410Z,36.73
2022-08-11T10:16:15.749Z,37.79
2022-08-11T10:18:52.197Z,37.38
2022-08-11T10:21:28.332Z,38.11
2022-08-11T10:24:17.244Z,36.33
2022-08-11T10:27:00.621Z,36.18
2022-08-11T10:29:52.116Z,37.15
2022-08-11T10:32:57.511Z,35.84
2022-08-11T10:35:29.391Z,33.91
2022-08-11T10:38:07.574Z,33.70
2022-08-11T10:40:39.147Z,32.70
2022-08-11T10:43:10.560Z,32.74
2022-08-11T10:45:59.150Z,33.63
2022-08-11T10:48:28.757Z,33.01
2022-08-11T10:51:14.723Z,32.69
2022-08-11T10:54:06.834Z,33.39
2022-08-11T10:56:58.265Z,33.22
2022-08-11T10:59:28.103Z,31.98
2022-08-11T11:01:55.425Z,31.77
2022-08-11T11:04:39.549Z,32.13
2022-08-11T11:07:13.718Z,32.40
2022-08-11T11:09:54.253Z,31.67
2022-08-11T11:12:47.065Z,31.08
2022-08-11T11:15:35.547Z,31.65
2022-08-11T11:18:07.464Z,31.86
2022-08-11T11:21:04.331Z,31.05
2022-08-11T11:24:06.059Z,30.54
2022-08-11T11:26:50.373Z,29.92
2022-08-11T11:29:50.684Z,30.50
2022-08-11T11:32:33.348Z,28.36
2022-08-11T11:35:18.019Z,28.55
2022-08-11T11:37:56.205Z,29.01
2022-08-11T11:40:32.367Z,27.44
2022-08-11T11:43:00.052Z,28.05
2022-08-11T11:45:26.835Z,29.90
2022-08-11T11:47:55.810Z,29.04
2022-08-11T11:50:36.736Z,29.35
2022-08-11T11:53:09.668Z,29.67
2022-08-11T11:55:37.003Z,28.39
2022-08-11T11:58:23.798Z,28.38
2022-08-11T12:01:12.153Z,27.89
2022-08-11T12:03:40.143Z,27.43
2022-08-11T12:06:09.314Z,27.85
2022-08-11T12:08:37.175Z,26.82
2022-08-11T12:11:25.150Z,26.70
2022-08-11T12:13:57.669Z,26.97
2022-08-11T12:16:34.410Z,26.67
2022-08-11T12:19:06.576Z,26.25
2022-08-11T12:21:35.840Z,26.49
2022-08-11T12:24:21.638Z,25.56
2022-08-11T12:27:15.007Z,25.70
2022-08-11T12:29:36.131Z,26.70
2022-08-11T12:32:08.173Z,26.00
2022-08-11T12:34:35.430Z,26.66
2022-08-11T12:37:05.594Z,26.05
2022-08-11T12:40:12.973Z,25.38
2022-08-11T12:43:04.053Z,26.79
2022-08-11T12:45:37.197Z,25.93
2022-08-11T12:48:58.747Z,25.41
2022-08-11T12:52:12.417Z,25.41
2022-08-11T12:55:02.409Z,25.39
2022-08-11T12:57:54.042Z,25.32
2022-08-11T13:00:40.430Z,26.95
2022-08-11T13:03:28.708Z,25.48
2022-08-11T13:06:00.715Z,26.05
2022-08-11T13:08:29.395Z,25.05
2022-08-11T13:11:17.082Z,25.18
2022-08-11T13:13:55.878Z,25.10
2022-08-11T13:16:30.611Z,24.51
2022-08-11T13:19:01.083Z,24.17
2022-08-11T13:21:28.986Z,23.21
2022-08-11T13:23:59.869Z,23.70
2022-08-11T13:26:48.620Z,23.93
2022-08-11T13:29:25.381Z,25.14
2022-08-11T13:31:55.998Z,24.39
2022-08-11T13:34:23.771Z,25.71
2022-08-11T13:36:52.608Z,23.67
2022-08-11T13:39:22.893Z,23.83
2022-08-11T13:41:53.395Z,23.92
2022-08-11T13:44:25.507Z,22.29
2022-08-11T13:46:57.564Z,22.80
2022-08-11T13:49:25.709Z,22.93
2022-08-11T13:51:54.102Z,22.54
2022-08-11T13:54:36.791Z,23.53
2022-08-11T13:57:08.121Z,22.06
2022-08-11T13:59:43.689Z,23.90
2022-08-11T14:02:30.854Z,21.49
2022-08-11T14:05:02.679Z,22.43
2022-08-11T14:07:39.181Z,22.04
2022-08-11T14:10:07.624Z,20.30
2022-08-11T14:13:12.212Z,20.36
2022-08-11T14:15:42.271Z,21.68
2022-08-11T14:18:16.968Z,21.39
2022-08-11T14:21:05.175Z,22.12
2022-08-11T14:23:38.683Z,22.36
2022-08-11T14:26:26.780Z,21.37
2022-08-11T14:28:57.434Z,20.61
2022-08-11T14:31:25.461Z,22.18
2022-08-11T14:33:59.368Z,19.63
2022-08-11T14:36:40.550Z,20.45
2022-08-11T14:39:13.318Z,20.09
2022-08-11T14:42:11.119Z,20.53
2022-08-11T14:45:00.531Z,20.06
2022-08-11T14:47:28.707Z,20.70
2022-08-11T14:50:09.819Z,20.05
2022-08-11T14:52:44.678Z,19.59
2022-08-11T14:55:31.522Z,20.61
2022-08-11T14:57:59.295Z,21.58
2022-08-11T15:00:26.577Z,20.25
2022-08-11T15:03:13.527Z,19.39
2022-08-11T15:05:56.813Z,20.85
2022-08-11T15:08:46.549Z,20.38
2022-08-11T15:11:33.522Z,20.62
2022-08-11T15:14:02.456Z,20.82
2022-08-11T15:16:48.611Z,21.02
2022-08-11T15:19:16.369Z,20.92
2022-08-11T15:22:01.819Z,19.35
2022-08-11T15:24:30.767Z,19.88
2022-08-11T15:27:19.350Z,20.86
2022-08-11T15:30:07.256Z,21.83
2022-08-11T15:32:53.709Z,20.47
2022-08-11T15:35:39.261Z,20.93
2022-08-11T15:38:11.612Z,20.43
2022-08-11T15:40:58.623Z,20.46
2022-08-11T15:43:47.860Z,21.42
2022-08-11T15:46:18.763Z,21.09
2022-08-11T15:48:53.896Z,21.27
2022-08-11T15:51:33.275Z,20.75
2022-08-11T15:54:08.498Z,21.65
2022-08-11T15:56:39.743Z,20.47
2022-08-11T15:59:42.036Z,20.06
2022-08-11T16:02:32.870Z,20.52
2022-08-11T16:05:02.195Z,19.18
2022-08-11T16:07:32.545Z,19.51
2022-08-11T16:10:09.636Z,21.02
2022-08-11T16:12:40.548Z,20.08
2022-08-11T16:15:29.243Z,21.22
2022-08-11T16:18:05.005Z,20.93
2022-08-11T16:20:33.589Z,21.35
2022-08-11T16:23:04.647Z,20.71
2022-08-11T16:26:30.474Z,21.12
2022-08-11T16:28:23.111Z,21.42
2022-08-11T16:30:50.968Z,19.89
2022-08-11T16:33:49.087Z,20.44
2022-08-11T16:36:27.609Z,21.08
2022-08-11T16:38:56.729Z,21.23
2022-08-11T16:41:44.277Z,19.92
2022-08-11T16:44:37.007Z,20.56
2022-08-11T16:47:06.879Z,19.60
2022-08-11T16:49:36.646Z,19.63
2022-08-11T16:52:06.061Z,20.64
2022-08-11T16:54:34.473Z,20.67
2022-08-11T16:57:23.634Z,20.72
2022-08-11T16:59:57.812Z,19.92
2022-08-11T17:02:47.401Z,20.46
2022-08-11T17:05:39.080Z,20.61
2022-08-11T17:08:55.933Z,20.61
2022-08-11T17:11:46.138Z,20.14
2022-08-11T17:14:35.129Z,21.02
2022-08-11T17:17:05.954Z,21.57
2022-08-11T17:20:43.086Z,20.49
2022-08-11T17:22:41.100Z,21.31
2022-08-11T17:25:09.783Z,20.40
2022-08-11T17:27:38.681Z,21.26
2022-08-11T17:30:07.758Z,20.26
2022-08-11T17:33:03.269Z,21.00
2022-08-11T17:35:34.650Z,21.10
2022-08-11T17:38:15.867Z,20.96
2022-08-11T17:41:22.977Z,21.27
2022-08-11T17:44:10.361Z,21.36
2022-08-11T17:47:01.028Z,21.12
2022-08-11T17:49:37.371Z,20.66
2022-08-11T17:52:24.999Z,21.22
2022-08-11T17:55:11.871Z,20.94
2022-08-11T17:58:00.249Z,22.57
2022-08-11T18:00:27.707Z,21.32
2022-08-11T18:03:14.507Z,21.29
2022-08-11T18:05:44.369Z,21.94
2022-08-11T18:08:31.755Z,21.74
2022-08-11T18:12:06.080Z,21.75
2022-08-11T18:14:27.510Z,21.83
2022-08-11T18:17:13.016Z,22.33
2022-08-11T18:19:58.364Z,22.65
2022-08-11T18:22:48.248Z,22.95
2022-08-11T18:25:43.238Z,23.40
2022-08-11T18:28:34.048Z,23.70
2022-08-11T18:31:20.943Z,24.17
2022-08-11T18:34:11.035Z,23.73
2022-08-11T18:37:19.725Z,23.79
2022-08-11T18:40:16.327Z,23.27
2022-08-11T18:43:05.680Z,24.10
2022-08-11T18:46:05.276Z,23.56
2022-08-11T18:48:55.141Z,23.99
2022-08-11T18:51:42.409Z,24.25
2022-08-11T18:54:29.871Z,24.19
2022-08-11T18:57:18.240Z,24.56
2022-08-11T19:00:05.329Z,24.01
2022-08-11T19:02:57.771Z,24.45
2022-08-11T19:06:05.307Z,24.08
2022-08-11T19:08:55.989Z,25.00
2022-08-11T19:11:43.881Z,24.80
2022-08-11T19:14:30.895Z,24.86
2022-08-11T19:17:43.995Z,25.48
2022-08-11T19:20:31.927Z,24.44
2022-08-11T19:23:18.273Z,24.80
2022-08-11T19:26:05.615Z,24.96
2022-08-11T19:28:53.073Z,25.10
2022-08-11T19:31:43.824Z,25.47
2022-08-11T19:34:34.477Z,25.79
2022-08-11T19:37:24.326Z,26.54
2022-08-11T19:40:16.793Z,26.25
2022-08-11T19:43:03.535Z,26.25
2022-08-11T19:45:52.589Z,26.37
2022-08-11T19:48:43.732Z,26.97
2022-08-11T19:51:29.616Z,27.02
2022-08-11T19:54:16.431Z,26.95
2022-08-11T19:57:03.849Z,27.39
2022-08-11T19:59:50.680Z,27.08
2022-08-11T20:02:35.931Z,26.95
2022-08-11T20:05:21.603Z,26.66
2022-08-11T20:08:07.909Z,26.83
2022-08-11T20:10:54.787Z,26.88
2022-08-11T20:13:43.426Z,27.78
2022-08-11T20:16:31.005Z,27.45
2022-08-11T20:19:17.856Z,27.72
2022-08-11T20:22:08.208Z,27.48
2022-08-11T20:24:56.751Z,28.34
2022-08-11T20:27:43.039Z,28.23
2022-08-11T20:30:28.922Z,28.21
2022-08-11T20:33:13.851Z,28.28
2022-08-11T20:35:58.958Z,28.30
2022-08-11T20:38:48.802Z,28.67
2022-08-11T20:41:58.686Z,27.93
2022-08-11T20:44:42.169Z,28.67
2022-08-11T20:47:27.492Z,28.17
2022-08-11T20:50:19.289Z,28.38
2022-08-11T20:53:06.082Z,27.91
2022-08-11T20:55:53.778Z,28.02
2022-08-11T21:01:47.235Z,28.27
2022-08-11T21:04:37.508Z,28.32
2022-08-11T21:07:41.428Z,28.75
2022-08-11T21:10:29.118Z,28.95
2022-08-11T21:13:24.252Z,29.04
2022-08-11T21:16:18.351Z,29.71
2022-08-11T21:19:18.796Z,29.92
2022-08-11T21:22:27.852Z,29.56
2022-08-11T21:25:15.999Z,30.08
2022-08-11T21:28:02.737Z,29.68
2022-08-11T21:30:49.653Z,29.74
2022-08-11T21:33:35.588Z,29.35
2022-08-11T21:36:21.221Z,30.25
2022-08-11T21:39:08.076Z,30.03
2022-08-11T21:41:53.521Z,30.11
2022-08-11T21:44:39.847Z,30.58
2022-08-11T21:47:43.721Z,29.93
2022-08-11T21:50:29.679Z,30.58
2022-08-11T21:53:16.465Z,30.46
2022-08-11T21:56:03.308Z,30.61
2022-08-11T21:58:49.804Z,30.55
2022-08-11T22:01:36.810Z,30.92
2022-08-11T22:04:23.552Z,31.56
2022-08-11T22:07:09.931Z,31.29
2022-08-11T22:09:55.821Z,30.87
2022-08-11T22:12:44.891Z,30.82
2022-08-11T22:15:31.852Z,31.18
2022-08-11T22:18:19.205Z,31.25
2022-08-11T22:21:04.616Z,31.14
2022-08-11T22:23:52.479Z,31.50
2022-08-11T22:26:39.592Z,31.69
2022-08-11T22:29:50.826Z,32.03
2022-08-11T22:32:32.340Z,31.46
2022-08-11T22:35:19.341Z,31.75
2022-08-11T22:38:05.663Z,32.04
2022-08-11T22:40:52.000Z,31.37
2022-08-11T22:43:37.772Z,32.08
2022-08-11T22:46:23.611Z,31.91
2022-08-11T22:49:10.025Z,32.51
2022-08-11T22:51:57.496Z,31.91
2022-08-11T22:54:43.955Z,31.85
2022-08-11T22:57:29.304Z,32.10
2022-08-11T23:00:16.916Z,32.33
2022-08-11T23:03:02.645Z,33.11
2022-08-11T23:05:48.247Z,32.41
2022-08-11T23:08:34.415Z,33.00
2022-08-11T23:11:20.323Z,32.75
2022-08-11T23:14:06.395Z,33.27
2022-08-11T23:16:51.731Z,33.32
2022-08-11T23:20:08.702Z,33.52
2022-08-11T23:22:50.253Z,33.29
2022-08-11T23:25:36.487Z,34.55
2022-08-11T23:28:24.431Z,33.89
2022-08-11T23:31:12.286Z,34.92
2022-08-11T23:34:00.662Z,34.70
2022-08-11T23:36:47.422Z,34.53
2022-08-11T23:39:34.439Z,35.12
2022-08-11T23:42:20.681Z,34.68
2022-08-11T23:45:07.265Z,35.08
2022-08-11T23:47:56.955Z,35.05
2022-08-11T23:50:43.888Z,34.53
2022-08-11T23:53:31.328Z,34.58
2022-08-11T23:56:17.752Z,34.65
2022-08-11T23:59:09.183Z,34.11
